createdAt,value
2023-01-19T00:00:00.551Z,0.045
2023-01-19T00:01:00.533Z,0.045
2023-01-19T00:02:00.525Z,0.045
2023-01-19T00:03:00.857Z,0.045
2023-01-19T00:04:00.548Z,0.045
2023-01-19T00:05:00.668Z,0.045
2023-01-19T00:06:00.789Z,0.045
2023-01-19T00:07:00.756Z,0.045
2023-01-19T00:08:01.173Z,0.045
2023-01-19T00:09:00.538Z,0.045
2023-01-19T00:10:00.590Z,0.045
2023-01-19T00:11:00.671Z,0.045
2023-01-19T00:12:00.527Z,0.045
2023-01-19T00:13:01.135Z,0.045
2023-01-19T00:14:00.603Z,0.045
2023-01-19T00:15:00.623Z,0.045
2023-01-19T00:16:00.664Z,0.045
2023-01-19T00:17:00.748Z,0.045
2023-01-19T00:18:00.629Z,0.045
2023-01-19T00:19:00.551Z,0.045
2023-01-19T00:20:00.514Z,0.045
2023-01-19T00:21:00.504Z,0.045
2023-01-19T00:22:00.525Z,0.045
2023-01-19T00:23:01.042Z,0.045
2023-01-19T00:24:00.497Z,0.045
2023-01-19T00:25:00.520Z,0.045
2023-01-19T00:26:00.552Z,0.045
2023-01-19T00:27:00.516Z,0.045
2023-01-19T00:28:01.873Z,0.045
2023-01-19T00:29:00.604Z,0.045
2023-01-19T00:30:00.559Z,0.045
2023-01-19T00:31:00.533Z,0.045
2023-01-19T00:32:00.549Z,0.045
2023-01-19T00:33:00.737Z,0.045
2023-01-19T00:34:00.556Z,0.045
2023-01-19T00:35:00.615Z,0.045
2023-01-19T00:36:00.520Z,0.045
2023-01-19T00:37:00.490Z,0.045
2023-01-19T00:38:00.553Z,0.045
2023-01-19T00:39:00.598Z,0.045
2023-01-19T00:40:00.493Z,0.045
2023-01-19T00:41:00.574Z,0.045
2023-01-19T00:42:00.605Z,0.045
2023-01-19T00:43:01.194Z,0.045
2023-01-19T00:44:00.547Z,0.045
2023-01-19T00:45:00.687Z,0.045
2023-01-19T00:46:00.573Z,0.045
2023-01-19T00:47:00.577Z,0.045
2023-01-19T00:48:00.541Z,0.045
2023-01-19T00:49:00.522Z,0.045
2023-01-19T00:50:00.611Z,0.045
2023-01-19T00:51:00.726Z,0.045
2023-01-19T00:52:00.569Z,0.045
2023-01-19T00:53:00.960Z,0.045
2023-01-19T00:54:00.524Z,0.045
2023-01-19T00:55:00.654Z,0.045
2023-01-19T00:56:00.564Z,0.045
2023-01-19T00:57:00.757Z,0.045
2023-01-19T00:58:00.644Z,0.045
2023-01-19T00:59:00.547Z,0.045
2023-01-19T01:00:00.548Z,0.045
2023-01-19T01:01:00.635Z,0.045
2023-01-19T01:02:00.794Z,0.045
2023-01-19T01:03:01.238Z,0.045
2023-01-19T01:04:00.569Z,0.045
2023-01-19T01:05:00.569Z,0.045
2023-01-19T01:06:00.516Z,0.045
2023-01-19T01:07:00.522Z,0.045
2023-01-19T01:08:00.489Z,0.045
2023-01-19T01:09:00.607Z,0.045
2023-01-19T01:10:00.548Z,0.045
2023-01-19T01:11:00.559Z,0.045
2023-01-19T01:12:00.539Z,0.045
2023-01-19T01:13:00.625Z,0.045
2023-01-19T01:14:00.533Z,0.045
2023-01-19T01:15:00.562Z,0.045
2023-01-19T01:16:00.508Z,0.045
2023-01-19T01:17:00.829Z,0.045
2023-01-19T01:18:00.548Z,0.045
2023-01-19T01:19:00.522Z,0.045
2023-01-19T01:20:00.565Z,0.045
2023-01-19T01:21:00.519Z,0.045
2023-01-19T01:22:00.593Z,0.045
2023-01-19T01:23:01.020Z,0.045
2023-01-19T01:24:00.601Z,0.045
2023-01-19T01:25:00.547Z,0.045
2023-01-19T01:26:00.501Z,0.045
2023-01-19T01:27:00.525Z,0.045
2023-01-19T01:28:00.537Z,0.045
2023-01-19T01:29:00.624Z,0.045
2023-01-19T01:30:00.559Z,0.045
2023-01-19T01:31:00.535Z,0.045
2023-01-19T01:32:00.572Z,0.045
2023-01-19T01:33:00.919Z,0.045
2023-01-19T01:34:00.490Z,0.045
2023-01-19T01:35:00.538Z,0.045
2023-01-19T01:36:00.516Z,0.045
2023-01-19T01:37:00.516Z,0.045
2023-01-19T01:38:00.678Z,0.045
2023-01-19T01:39:00.610Z,0.045
2023-01-19T01:40:00.525Z,0.045
2023-01-19T01:41:00.516Z,0.045
2023-01-19T01:42:00.498Z,0.045
2023-01-19T01:43:01.155Z,0.045
2023-01-19T01:44:00.526Z,0.045
2023-01-19T01:45:00.517Z,0.045
2023-01-19T01:46:00.638Z,0.045
2023-01-19T01:47:00.567Z,0.045
2023-01-19T01:48:00.520Z,0.045
2023-01-19T01:49:00.685Z,0.045
2023-01-19T01:50:00.531Z,0.045
2023-01-19T01:51:00.521Z,0.045
2023-01-19T01:52:00.521Z,0.045
2023-01-19T01:53:06.963Z,0.045
2023-01-19T01:54:00.595Z,0.045
2023-01-19T01:55:00.568Z,0.045
2023-01-19T01:56:00.581Z,0.045
2023-01-19T01:57:00.619Z,0.045
2023-01-19T01:58:00.524Z,0.045
2023-01-19T01:59:00.490Z,0.045
2023-01-19T02:00:00.673Z,0.045
2023-01-19T02:01:00.821Z,0.045
2023-01-19T02:02:00.664Z,0.045
2023-01-19T02:03:01.029Z,0.045
2023-01-19T02:04:00.536Z,0.045
2023-01-19T02:05:00.570Z,0.045
2023-01-19T02:06:00.514Z,0.045
2023-01-19T02:07:00.759Z,0.045
2023-01-19T02:08:00.631Z,0.045
2023-01-19T02:09:00.525Z,0.045
2023-01-19T02:10:00.530Z,0.045
2023-01-19T02:11:00.511Z,0.045
2023-01-19T02:12:00.531Z,0.045
2023-01-19T02:13:01.007Z,0.045
2023-01-19T02:14:00.546Z,0.045
2023-01-19T02:15:00.598Z,0.045
2023-01-19T02:16:00.507Z,0.045
2023-01-19T02:17:00.657Z,0.045
2023-01-19T02:18:00.549Z,0.045
2023-01-19T02:19:00.642Z,0.045
2023-01-19T02:20:00.499Z,0.045
2023-01-19T02:21:00.545Z,0.045
2023-01-19T02:22:00.522Z,0.045
2023-01-19T02:23:00.921Z,0.045
2023-01-19T02:24:00.751Z,0.045
2023-01-19T02:25:00.610Z,0.045
2023-01-19T02:26:00.518Z,0.045
2023-01-19T02:27:00.510Z,0.045
2023-01-19T02:28:00.518Z,0.045
2023-01-19T02:29:00.552Z,0.045
2023-01-19T02:30:00.498Z,0.045
2023-01-19T02:31:00.748Z,0.045
2023-01-19T02:32:00.644Z,0.045
2023-01-19T02:33:00.884Z,0.045
2023-01-19T02:34:00.546Z,0.045
2023-01-19T02:35:00.643Z,0.045
2023-01-19T02:36:00.518Z,0.045
2023-01-19T02:37:00.641Z,0.045
2023-01-19T02:38:00.588Z,0.045
2023-01-19T02:39:00.554Z,0.045
2023-01-19T02:40:00.531Z,0.045
2023-01-19T02:41:00.571Z,0.045
2023-01-19T02:42:00.492Z,0.045
2023-01-19T02:43:01.180Z,0.045
2023-01-19T02:44:00.501Z,0.045
2023-01-19T02:45:00.492Z,0.045
2023-01-19T02:46:00.585Z,0.045
2023-01-19T02:47:00.550Z,0.045
2023-01-19T02:48:00.498Z,0.045
2023-01-19T02:49:00.614Z,0.045
2023-01-19T02:50:00.541Z,0.045
2023-01-19T02:51:00.546Z,0.045
2023-01-19T02:52:00.529Z,0.045
2023-01-19T02:53:01.105Z,0.045
2023-01-19T02:54:00.565Z,0.045
2023-01-19T02:55:00.542Z,0.045
2023-01-19T02:56:00.516Z,0.045
2023-01-19T02:57:00.516Z,0.045
2023-01-19T02:58:00.524Z,0.045
2023-01-19T02:59:00.617Z,0.045
2023-01-19T03:00:00.525Z,0.045
2023-01-19T03:01:00.673Z,0.045
2023-01-19T03:02:00.647Z,0.045
2023-01-19T03:03:00.930Z,0.045
2023-01-19T03:04:00.520Z,0.045
2023-01-19T03:05:00.690Z,0.045
2023-01-19T03:06:00.537Z,0.045
2023-01-19T03:07:00.524Z,0.045
2023-01-19T03:08:00.514Z,0.045
2023-01-19T03:09:00.583Z,0.045
2023-01-19T03:10:00.680Z,0.045
2023-01-19T03:11:00.621Z,0.045
2023-01-19T03:12:00.563Z,0.045
2023-01-19T03:13:00.919Z,0.045
2023-01-19T03:14:01.840Z,0.045
2023-01-19T03:15:00.528Z,0.045
2023-01-19T03:16:00.539Z,0.045
2023-01-19T03:17:00.645Z,0.045
2023-01-19T03:18:00.494Z,0.045
2023-01-19T03:19:00.546Z,0.045
2023-01-19T03:20:00.521Z,0.045
2023-01-19T03:21:00.543Z,0.045
2023-01-19T03:22:00.516Z,0.045
2023-01-19T03:23:01.117Z,0.045
2023-01-19T03:24:00.512Z,0.045
2023-01-19T03:25:00.758Z,0.045
2023-01-19T03:26:00.520Z,0.045
2023-01-19T03:27:00.552Z,0.045
2023-01-19T03:28:00.496Z,0.045
2023-01-19T03:29:00.594Z,0.045
2023-01-19T03:30:00.524Z,0.045
2023-01-19T03:31:00.586Z,0.045
2023-01-19T03:32:00.550Z,0.045
2023-01-19T03:33:00.956Z,0.045
2023-01-19T03:34:00.522Z,0.045
2023-01-19T03:35:01.119Z,0.045
2023-01-19T03:36:00.495Z,0.045
2023-01-19T03:37:00.492Z,0.090
2023-01-19T03:38:00.541Z,0.090
2023-01-19T03:39:00.519Z,0.135
2023-01-19T03:40:00.662Z,0.090
2023-01-19T03:41:00.654Z,0.090
2023-01-19T03:42:00.514Z,0.135
2023-01-19T03:43:00.836Z,0.135
2023-01-19T03:44:00.491Z,0.180
2023-01-19T03:45:00.489Z,0.180
2023-01-19T03:46:00.541Z,0.180
2023-01-19T03:47:00.628Z,0.225
2023-01-19T03:48:00.518Z,0.270
2023-01-19T03:49:00.547Z,0.360
2023-01-19T03:50:00.516Z,0.450
2023-01-19T03:51:00.496Z,0.450
2023-01-19T03:52:00.535Z,0.585
2023-01-19T03:53:01.218Z,0.720
2023-01-19T03:54:00.538Z,0.900
2023-01-19T03:55:00.711Z,1.125
2023-01-19T03:56:00.585Z,1.305
2023-01-19T03:57:00.573Z,1.665
2023-01-19T03:58:00.591Z,2.070
2023-01-19T03:59:00.678Z,2.565
2023-01-19T04:00:00.566Z,3.150
2023-01-19T04:01:00.687Z,3.825
2023-01-19T04:02:00.644Z,4.725
2023-01-19T04:03:00.944Z,5.715
2023-01-19T04:04:00.518Z,6.885
2023-01-19T04:05:00.749Z,8.190
2023-01-19T04:06:00.541Z,9.810
2023-01-19T04:07:00.551Z,11.610
2023-01-19T04:08:00.548Z,13.680
2023-01-19T04:09:00.497Z,16.110
2023-01-19T04:10:00.607Z,18.720
2023-01-19T04:11:00.611Z,21.690
2023-01-19T04:12:00.533Z,24.840
2023-01-19T04:13:01.098Z,28.620
2023-01-19T04:14:00.644Z,32.580
2023-01-19T04:15:00.537Z,37.080
2023-01-19T04:16:00.603Z,41.760
2023-01-19T04:17:00.888Z,46.800
2023-01-19T04:18:00.618Z,52.560
2023-01-19T04:19:00.518Z,58.320
2023-01-19T04:20:00.525Z,64.800
2023-01-19T04:21:00.558Z,71.280
2023-01-19T04:22:00.539Z,78.480
2023-01-19T04:23:01.094Z,86.400
2023-01-19T04:24:00.493Z,94.320
2023-01-19T04:25:00.569Z,102.960
2023-01-19T04:26:00.550Z,113.040
2023-01-19T04:27:00.517Z,123.120
2023-01-19T04:28:00.550Z,134.640
2023-01-19T04:29:00.612Z,146.160
2023-01-19T04:30:00.616Z,159.120
2023-01-19T04:31:00.824Z,172.080
2023-01-19T04:32:00.610Z,184.320
2023-01-19T04:33:00.812Z,198.720
2023-01-19T04:34:00.594Z,216.000
2023-01-19T04:35:00.551Z,230.400
2023-01-19T04:36:00.553Z,249.120
2023-01-19T04:37:00.519Z,270.720
2023-01-19T04:38:00.621Z,290.880
2023-01-19T04:39:00.491Z,311.040
2023-01-19T04:40:00.552Z,335.520
2023-01-19T04:41:00.532Z,362.880
2023-01-19T04:42:00.524Z,394.560
2023-01-19T04:43:01.043Z,429.120
2023-01-19T04:44:00.596Z,466.560
2023-01-19T04:45:00.520Z,506.880
2023-01-19T04:46:00.685Z,541.440
2023-01-19T04:47:00.605Z,578.880
2023-01-19T04:48:00.523Z,613.440
2023-01-19T04:49:00.533Z,656.640
2023-01-19T04:50:00.646Z,714.240
2023-01-19T04:51:00.584Z,777.600
2023-01-19T04:52:00.532Z,846.720
2023-01-19T04:53:01.123Z,904.320
2023-01-19T04:54:00.690Z,967.680
2023-01-19T04:55:00.518Z,1244.160
2023-01-19T04:56:00.603Z,1336.320
2023-01-19T04:57:00.646Z,1422.720
2023-01-19T04:58:00.495Z,1509.120
2023-01-19T04:59:00.800Z,1635.840
2023-01-19T05:00:00.561Z,1762.560
2023-01-19T05:01:00.737Z,1877.760
2023-01-19T05:02:00.580Z,1774.080
2023-01-19T05:03:01.045Z,1370.880
2023-01-19T05:04:00.527Z,1008.000
2023-01-19T05:05:00.703Z,990.720
2023-01-19T05:06:00.496Z,1013.760
2023-01-19T05:07:00.546Z,1042.560
2023-01-19T05:08:00.508Z,1071.360
2023-01-19T05:09:00.561Z,1100.160
2023-01-19T05:10:00.527Z,1134.720
2023-01-19T05:11:00.601Z,1163.520
2023-01-19T05:12:00.539Z,1198.080
2023-01-19T05:13:00.954Z,1221.120
2023-01-19T05:14:00.526Z,1255.680
2023-01-19T05:15:00.913Z,1284.480
2023-01-19T05:16:00.747Z,1319.040
2023-01-19T05:17:00.688Z,1342.080
2023-01-19T05:18:00.585Z,1376.640
2023-01-19T05:19:00.579Z,1405.440
2023-01-19T05:20:00.631Z,1440.000
2023-01-19T05:21:00.545Z,1463.040
2023-01-19T05:22:00.497Z,1486.080
2023-01-19T05:23:01.085Z,1509.120
2023-01-19T05:24:00.520Z,1532.160
2023-01-19T05:25:00.553Z,1555.200
2023-01-19T05:26:00.529Z,1589.760
2023-01-19T05:27:00.524Z,1612.800
2023-01-19T05:28:00.534Z,2027.520
2023-01-19T05:29:00.671Z,3317.760
2023-01-19T05:30:00.682Z,4746.240
2023-01-19T05:31:00.860Z,5621.760
2023-01-19T05:32:00.759Z,5806.080
2023-01-19T05:33:00.810Z,5898.240
2023-01-19T05:34:00.553Z,5990.400
2023-01-19T05:35:00.648Z,5990.400
2023-01-19T05:36:00.531Z,6174.720
2023-01-19T05:37:00.576Z,6497.280
2023-01-19T05:38:00.560Z,6589.440
2023-01-19T05:39:00.601Z,6681.600
2023-01-19T05:40:00.541Z,6865.920
2023-01-19T05:41:00.733Z,7050.240
2023-01-19T05:42:00.560Z,7234.560
2023-01-19T05:43:01.200Z,7372.800
2023-01-19T05:44:00.539Z,7557.120
2023-01-19T05:45:00.502Z,7649.280
2023-01-19T05:46:00.670Z,7695.360
2023-01-19T05:47:00.761Z,7879.680
2023-01-19T05:48:00.526Z,8064.000
2023-01-19T05:49:00.487Z,8248.320
2023-01-19T05:50:00.538Z,8294.400
2023-01-19T05:51:00.551Z,8432.640
2023-01-19T05:52:00.516Z,8570.880
2023-01-19T05:53:01.013Z,8663.040
2023-01-19T05:54:00.556Z,8801.280
2023-01-19T05:55:00.535Z,8985.600
2023-01-19T05:56:00.532Z,9169.920
2023-01-19T05:57:00.567Z,9446.400
2023-01-19T05:58:00.619Z,9584.640
2023-01-19T05:59:00.698Z,9722.880
2023-01-19T06:00:00.582Z,9768.960
2023-01-19T06:01:00.751Z,9815.040
2023-01-19T06:02:00.562Z,9907.200
2023-01-19T06:03:01.044Z,10183.680
2023-01-19T06:04:00.588Z,10506.240
2023-01-19T06:05:00.632Z,10690.560
2023-01-19T06:06:00.667Z,10828.800
2023-01-19T06:07:00.522Z,11243.520
2023-01-19T06:08:00.517Z,11105.280
2023-01-19T06:09:00.520Z,10920.960
2023-01-19T06:10:00.542Z,10782.720
2023-01-19T06:11:00.490Z,10782.720
2023-01-19T06:12:00.699Z,10874.880
2023-01-19T06:13:00.766Z,11013.120
2023-01-19T06:14:00.533Z,11151.360
2023-01-19T06:15:00.552Z,11289.600
2023-01-19T06:16:00.669Z,11381.760
2023-01-19T06:17:00.549Z,11381.760
2023-01-19T06:18:00.736Z,11520.000
2023-01-19T06:19:00.526Z,11612.160
2023-01-19T06:20:00.513Z,11750.400
2023-01-19T06:21:00.565Z,11796.480
2023-01-19T06:22:00.583Z,11980.800
2023-01-19T06:23:00.986Z,11980.800
2023-01-19T06:24:00.558Z,11980.800
2023-01-19T06:25:00.552Z,12072.960
2023-01-19T06:26:00.616Z,12072.960
2023-01-19T06:27:00.546Z,11980.800
2023-01-19T06:28:00.493Z,12072.960
2023-01-19T06:29:00.594Z,12165.120
2023-01-19T06:30:00.521Z,12257.280
2023-01-19T06:31:00.616Z,12257.280
2023-01-19T06:32:00.670Z,12349.440
2023-01-19T06:33:00.849Z,12257.280
2023-01-19T06:34:00.555Z,10782.720
2023-01-19T06:35:00.658Z,6635.520
2023-01-19T06:36:00.500Z,3479.040
2023-01-19T06:37:00.486Z,3340.800
2023-01-19T06:38:00.490Z,3340.800
2023-01-19T06:39:00.548Z,3363.840
2023-01-19T06:40:00.505Z,3386.880
2023-01-19T06:41:00.724Z,3386.880
2023-01-19T06:42:00.578Z,3386.880
2023-01-19T06:43:00.872Z,3409.920
2023-01-19T06:44:00.523Z,3432.960
2023-01-19T06:45:00.533Z,3432.960
2023-01-19T06:46:00.862Z,3456.000
2023-01-19T06:47:15.164Z,3456.000
2023-01-19T06:48:00.567Z,3479.040
2023-01-19T06:49:00.514Z,3502.080
2023-01-19T06:50:00.501Z,3525.120
2023-01-19T06:51:00.545Z,3548.160
2023-01-19T06:52:00.527Z,3548.160
2023-01-19T06:53:00.920Z,3548.160
2023-01-19T06:54:00.578Z,3548.160
2023-01-19T06:55:00.568Z,3548.160
2023-01-19T06:56:00.591Z,3571.200
2023-01-19T06:57:02.692Z,3594.240
2023-01-19T06:58:00.569Z,3617.280
2023-01-19T06:59:00.788Z,3663.360
2023-01-19T07:00:00.568Z,3663.360
2023-01-19T07:01:00.798Z,3686.400
2023-01-19T07:02:00.780Z,3686.400
2023-01-19T07:03:00.869Z,3686.400
2023-01-19T07:04:00.510Z,3686.400
2023-01-19T07:05:00.583Z,3709.440
2023-01-19T07:06:00.551Z,3709.440
2023-01-19T07:07:00.551Z,3732.480
2023-01-19T07:08:00.525Z,3755.520
2023-01-19T07:09:00.522Z,3755.520
2023-01-19T07:10:00.686Z,3778.560
2023-01-19T07:11:26.172Z,3778.560
2023-01-19T07:12:00.517Z,3778.560
2023-01-19T07:13:00.924Z,3801.600
2023-01-19T07:14:00.520Z,3801.600
2023-01-19T07:15:00.575Z,3801.600
2023-01-19T07:16:00.719Z,3801.600
2023-01-19T07:17:00.571Z,3801.600
2023-01-19T07:18:00.555Z,3824.640
2023-01-19T07:19:00.572Z,3824.640
2023-01-19T07:20:00.518Z,3847.680
2023-01-19T07:21:00.488Z,3870.720
2023-01-19T07:22:01.165Z,3870.720
2023-01-19T07:23:00.834Z,3870.720
2023-01-19T07:24:00.562Z,3893.760
2023-01-19T07:25:00.500Z,3916.800
2023-01-19T07:26:00.564Z,3939.840
2023-01-19T07:27:00.496Z,3985.920
2023-01-19T07:28:00.699Z,4008.960
2023-01-19T07:29:00.578Z,4032.000
2023-01-19T07:30:00.525Z,4008.960
2023-01-19T07:31:00.735Z,4008.960
2023-01-19T07:32:00.550Z,4055.040
2023-01-19T07:33:00.889Z,4055.040
2023-01-19T07:34:00.705Z,4055.040
2023-01-19T07:35:00.578Z,4078.080
2023-01-19T07:36:00.632Z,4101.120
2023-01-19T07:37:00.631Z,4101.120
2023-01-19T07:38:00.519Z,4101.120
2023-01-19T07:39:00.620Z,4170.240
2023-01-19T07:40:00.746Z,4193.280
2023-01-19T07:41:00.533Z,4216.320
2023-01-19T07:42:00.503Z,4216.320
2023-01-19T07:43:00.962Z,4216.320
2023-01-19T07:44:00.545Z,4193.280
2023-01-19T07:45:00.518Z,4193.280
2023-01-19T07:46:00.810Z,4216.320
2023-01-19T07:47:00.730Z,4216.320
2023-01-19T07:48:00.497Z,4193.280
2023-01-19T07:49:00.519Z,4216.320
2023-01-19T07:50:00.538Z,4262.400
2023-01-19T07:51:00.553Z,4262.400
2023-01-19T07:52:00.625Z,4239.360
2023-01-19T07:53:00.778Z,4239.360
2023-01-19T07:54:00.519Z,4239.360
2023-01-19T07:55:00.576Z,4285.440
2023-01-19T07:56:00.522Z,4285.440
2023-01-19T07:57:00.569Z,4308.480
2023-01-19T07:58:00.527Z,4308.480
2023-01-19T07:59:00.528Z,4308.480
2023-01-19T08:00:00.495Z,4331.520
2023-01-19T08:01:00.774Z,4354.560
2023-01-19T08:02:00.702Z,4331.520
2023-01-19T08:03:01.062Z,4354.560
2023-01-19T08:04:00.545Z,4354.560
2023-01-19T08:05:00.530Z,4354.560
2023-01-19T08:06:00.521Z,4354.560
2023-01-19T08:07:00.688Z,4354.560
2023-01-19T08:08:00.540Z,4400.640
2023-01-19T08:09:00.564Z,4400.640
2023-01-19T08:10:00.489Z,4400.640
2023-01-19T08:11:00.597Z,4354.560
2023-01-19T08:12:00.593Z,4354.560
2023-01-19T08:13:00.967Z,4423.680
2023-01-19T08:14:00.607Z,4492.800
2023-01-19T08:15:00.591Z,4515.840
2023-01-19T08:16:00.603Z,4515.840
2023-01-19T08:17:00.611Z,4561.920
2023-01-19T08:18:00.527Z,4561.920
2023-01-19T08:19:00.606Z,4608.000
2023-01-19T08:20:00.576Z,4631.040
2023-01-19T08:21:00.498Z,4631.040
2023-01-19T08:22:00.560Z,4631.040
2023-01-19T08:23:01.084Z,4631.040
2023-01-19T08:24:00.590Z,4654.080
2023-01-19T08:25:00.818Z,4654.080
2023-01-19T08:26:00.485Z,4654.080
2023-01-19T08:27:00.575Z,4700.160
2023-01-19T08:28:01.002Z,4700.160
2023-01-19T08:29:00.936Z,4723.200
2023-01-19T08:30:01.014Z,4769.280
2023-01-19T08:31:11.168Z,4769.280
2023-01-19T08:32:00.931Z,4769.280
2023-01-19T08:33:01.105Z,4815.360
2023-01-19T08:34:00.868Z,4884.480
2023-01-19T08:35:00.529Z,4907.520
2023-01-19T08:36:00.559Z,4999.680
2023-01-19T08:37:00.702Z,5068.800
2023-01-19T08:38:00.673Z,5783.040
2023-01-19T08:39:00.697Z,13639.680
2023-01-19T08:40:00.491Z,21012.480
2023-01-19T08:41:00.608Z,20920.320
2023-01-19T08:42:00.500Z,21104.641
2023-01-19T08:43:01.094Z,21381.119
2023-01-19T08:44:00.605Z,21381.119
2023-01-19T08:45:00.537Z,21381.119
2023-01-19T08:46:00.582Z,21104.641
2023-01-19T08:47:00.570Z,21012.480
2023-01-19T08:48:00.614Z,21381.119
2023-01-19T08:49:00.685Z,21565.439
2023-01-19T08:50:00.653Z,21934.080
2023-01-19T08:51:00.531Z,21657.600
2023-01-19T08:52:00.544Z,21565.439
2023-01-19T08:53:00.872Z,21565.439
2023-01-19T08:54:00.559Z,21749.760
2023-01-19T08:55:00.741Z,21841.920
2023-01-19T08:56:00.576Z,22118.400
2023-01-19T08:57:00.498Z,22118.400
2023-01-19T08:58:00.927Z,21657.600
2023-01-19T08:59:09.175Z,21841.920
2023-01-19T09:00:00.509Z,22118.400
2023-01-19T09:01:02.591Z,22210.561
2023-01-19T09:02:00.691Z,22394.881
2023-01-19T09:03:00.817Z,22302.721
2023-01-19T09:04:00.549Z,22487.039
2023-01-19T09:05:00.569Z,22487.039
2023-01-19T09:06:00.678Z,22302.721
2023-01-19T09:07:00.803Z,22210.561
2023-01-19T09:08:01.070Z,22394.881
2023-01-19T09:09:00.571Z,22302.721
2023-01-19T09:10:00.775Z,22302.721
2023-01-19T09:11:00.674Z,22579.199
2023-01-19T09:12:00.632Z,22579.199
2023-01-19T09:13:00.963Z,22671.359
2023-01-19T09:14:00.757Z,22855.680
2023-01-19T09:15:00.547Z,22763.520
2023-01-19T09:16:00.642Z,22579.199
2023-01-19T09:17:00.591Z,22487.039
2023-01-19T09:18:00.985Z,22671.359
2023-01-19T09:19:01.014Z,22763.520
2023-01-19T09:20:00.562Z,23040.000
2023-01-19T09:21:00.725Z,23040.000
2023-01-19T09:22:00.706Z,23224.320
2023-01-19T09:23:00.599Z,23316.480
2023-01-19T09:24:00.741Z,22947.840
2023-01-19T09:25:00.924Z,23040.000
2023-01-19T09:26:00.719Z,23132.160
2023-01-19T09:27:00.877Z,23408.641
2023-01-19T09:28:00.928Z,23408.641
2023-01-19T09:29:00.767Z,23408.641
2023-01-19T09:30:00.631Z,23592.961
2023-01-19T09:31:00.752Z,23592.961
2023-01-19T09:32:00.592Z,23224.320
2023-01-19T09:33:00.556Z,22947.840
2023-01-19T09:34:00.548Z,23132.160
2023-01-19T09:35:00.526Z,23224.320
2023-01-19T09:36:00.575Z,23132.160
2023-01-19T09:37:00.737Z,22947.840
2023-01-19T09:38:00.811Z,23132.160
2023-01-19T09:39:00.543Z,23408.641
2023-01-19T09:40:00.587Z,23224.320
2023-01-19T09:41:00.593Z,23132.160
2023-01-19T09:42:00.650Z,23132.160
2023-01-19T09:43:00.611Z,22671.359
2023-01-19T09:44:00.531Z,22671.359
2023-01-19T09:45:00.974Z,22487.039
2023-01-19T09:46:00.522Z,22579.199
2023-01-19T09:47:00.794Z,22855.680
2023-01-19T09:48:00.943Z,22947.840
2023-01-19T09:49:00.499Z,22763.520
2023-01-19T09:50:00.579Z,23040.000
2023-01-19T09:51:00.685Z,22394.881
2023-01-19T09:52:00.531Z,22579.199
2023-01-19T09:53:00.789Z,22947.840
2023-01-19T09:54:00.554Z,22763.520
2023-01-19T09:55:00.560Z,22394.881
2023-01-19T09:56:00.546Z,22394.881
2023-01-19T09:57:00.654Z,22487.039
2023-01-19T09:58:01.064Z,23592.961
2023-01-19T09:59:00.617Z,26542.080
2023-01-19T10:00:00.630Z,32071.680
2023-01-19T10:01:00.649Z,39813.121
2023-01-19T10:02:00.656Z,39813.121
2023-01-19T10:03:01.017Z,49766.398
2023-01-19T10:04:00.578Z,53821.441
2023-01-19T10:05:00.631Z,50872.320
2023-01-19T10:06:00.561Z,51240.961
2023-01-19T10:07:00.551Z,54558.719
2023-01-19T10:08:00.839Z,54558.719
2023-01-19T10:09:00.667Z,56033.281
2023-01-19T10:10:00.491Z,54558.719
2023-01-19T10:11:00.537Z,53821.441
2023-01-19T10:12:00.550Z,49766.398
2023-01-19T10:13:00.874Z,51240.961
2023-01-19T10:14:00.560Z,50872.320
2023-01-19T10:15:00.716Z,47923.199
2023-01-19T10:16:00.589Z,46632.961
2023-01-19T10:17:00.664Z,43130.879
2023-01-19T10:18:00.962Z,40366.078
2023-01-19T10:19:00.533Z,35758.078
2023-01-19T10:20:00.551Z,30044.160
2023-01-19T10:21:00.740Z,27095.039
2023-01-19T10:22:00.527Z,23961.600
2023-01-19T10:23:00.840Z,22026.240
2023-01-19T10:24:00.629Z,22026.240
2023-01-19T10:25:00.638Z,21841.920
2023-01-19T10:26:00.549Z,21657.600
2023-01-19T10:27:00.670Z,21841.920
2023-01-19T10:28:00.538Z,21288.961
2023-01-19T10:29:00.519Z,21565.439
2023-01-19T10:30:00.558Z,21657.600
2023-01-19T10:31:00.907Z,21657.600
2023-01-19T10:32:00.750Z,21381.119
2023-01-19T10:33:00.957Z,20736.000
2023-01-19T10:34:00.527Z,20183.039
2023-01-19T10:35:00.713Z,20367.359
2023-01-19T10:36:00.521Z,20643.840
2023-01-19T10:37:00.570Z,21012.480
2023-01-19T10:38:00.609Z,21196.801
2023-01-19T10:39:00.673Z,21104.641
2023-01-19T10:40:00.558Z,20920.320
2023-01-19T10:41:00.687Z,20367.359
2023-01-19T10:42:00.532Z,20090.881
2023-01-19T10:43:00.987Z,19814.400
2023-01-19T10:44:00.662Z,19998.721
2023-01-19T10:45:00.781Z,20275.199
2023-01-19T10:46:00.612Z,20459.520
2023-01-19T10:47:00.623Z,20459.520
2023-01-19T10:48:00.604Z,20459.520
2023-01-19T10:49:00.524Z,20275.199
2023-01-19T10:50:00.728Z,20275.199
2023-01-19T10:51:00.602Z,20090.881
2023-01-19T10:52:00.643Z,20183.039
2023-01-19T10:53:00.987Z,20090.881
2023-01-19T10:54:00.528Z,19998.721
2023-01-19T10:55:00.538Z,19814.400
2023-01-19T10:56:00.586Z,19814.400
2023-01-19T10:57:00.556Z,19998.721
2023-01-19T10:58:00.577Z,19998.721
2023-01-19T10:59:00.693Z,17233.920
2023-01-19T11:00:00.486Z,12349.440
2023-01-19T11:01:00.726Z,11105.280
2023-01-19T11:02:00.775Z,15759.360
2023-01-19T11:03:01.248Z,19814.400
2023-01-19T11:04:00.628Z,20183.039
2023-01-19T11:05:00.696Z,19906.561
2023-01-19T11:06:00.499Z,19630.080
2023-01-19T11:07:00.642Z,19814.400
2023-01-19T11:08:00.512Z,20183.039
2023-01-19T11:09:00.689Z,20275.199
2023-01-19T11:10:00.541Z,19445.760
2023-01-19T11:11:00.518Z,16773.119
2023-01-19T11:12:00.506Z,17418.240
2023-01-19T11:13:00.951Z,19353.600
2023-01-19T11:14:00.559Z,17694.721
2023-01-19T11:15:00.849Z,15851.520
2023-01-19T11:16:00.688Z,17602.561
2023-01-19T11:17:00.578Z,19630.080
2023-01-19T11:18:00.585Z,19722.240
2023-01-19T11:19:00.722Z,19722.240
2023-01-19T11:20:00.617Z,19630.080
2023-01-19T11:21:00.689Z,19630.080
2023-01-19T11:22:00.490Z,19537.920
2023-01-19T11:23:01.022Z,19169.279
2023-01-19T11:24:00.497Z,18892.801
2023-01-19T11:25:00.526Z,18524.160
2023-01-19T11:26:00.555Z,18616.320
2023-01-19T11:27:00.776Z,18524.160
2023-01-19T11:28:00.525Z,18616.320
2023-01-19T11:29:00.521Z,18432.000
2023-01-19T11:30:00.568Z,18339.840
2023-01-19T11:31:00.629Z,18339.840
2023-01-19T11:32:00.589Z,18339.840
2023-01-19T11:33:01.043Z,17786.881
2023-01-19T11:34:00.572Z,17602.561
2023-01-19T11:35:00.675Z,17879.039
2023-01-19T11:36:00.518Z,18063.359
2023-01-19T11:37:00.519Z,18247.680
2023-01-19T11:38:00.731Z,17694.721
2023-01-19T11:39:00.672Z,17233.920
2023-01-19T11:40:00.618Z,14192.640
2023-01-19T11:41:00.561Z,8939.520
2023-01-19T11:42:00.518Z,4078.080
2023-01-19T11:43:00.859Z,2949.120
2023-01-19T11:44:00.554Z,2868.480
2023-01-19T11:45:00.847Z,2972.160
2023-01-19T11:46:00.862Z,2856.960
2023-01-19T11:47:00.569Z,2880.000
2023-01-19T11:48:00.883Z,2741.760
2023-01-19T11:49:00.626Z,2776.320
2023-01-19T11:50:00.820Z,2741.760
2023-01-19T11:51:00.896Z,2730.240
2023-01-19T11:52:00.683Z,2672.640
2023-01-19T11:53:00.613Z,2649.600
2023-01-19T11:54:00.541Z,2649.600
2023-01-19T11:55:00.626Z,2615.040
2023-01-19T11:56:00.511Z,2534.400
2023-01-19T11:57:00.607Z,2545.920
2023-01-19T11:58:00.875Z,2580.480
2023-01-19T11:59:00.550Z,2534.400
2023-01-19T12:00:00.544Z,2522.880
2023-01-19T12:01:00.810Z,2511.360